»·PEaware :: UPS2875 KPHX-KPDX

UPS2875 :: KPHX-KPDX

FLIGHT INFORMATION

Flight Status: Arrived
Operator:
United Parcel Service
More flights by this operator :: More flights under this callsign
Pilot: Brandon G. (13)
Aircraft: BOEING 757-200
(B752)
More flights by this aircraft type
Origin: KPHX Phoenix Sky Harbor Intl
United States
Destination: KPDX Portland Intl
United States
More flights between these airports :: More routes between these airports
Route: MAYSA5 SISIE DOVEE BTY J92 LIDAT YERIN J92 LMT MOXEE6
File this flight plan on PilotEdge
Remarks:
Altitude:
(Current/Filed)
40,000ft
Speed:
(Current/Filed)
425kts
Departed: 30-Nov-17 08:25 PM
Arrived: 30-Nov-17 10:51 PM
Distance/Time
Traveled:
877nm/2:25
Distance/Time
To Go:
Arrived

Flight Plot

Page will automatically refresh every two minutes.

Flight plan parsing failed; only flown route is shown


Map Options




Map Legend


Flown Route
Filed Route
Departure Airport
Arrival Airport
Navaid (VOR, NDB)
Fix

Horizontal Profiles

Position Reports

Time Latitude Longitude Heading Altitude Ground
Speed
30-Nov-17 20:20 33.425284 -112.018039 90 1120ft 0kts
30-Nov-17 20:21 33.425284 -112.018039 90 1120ft 0kts
30-Nov-17 20:22 33.425284 -112.018039 90 1120ft 0kts
30-Nov-17 20:23 33.425284 -112.018039 90 1120ft 0kts
30-Nov-17 20:24 33.425284 -112.018039 90 1120ft 0kts
30-Nov-17 20:25 33.425284 -112.018039 90 1120ft 0kts
30-Nov-17 20:26 33.426476 -112.017384 358 1120ft 0kts
30-Nov-17 20:27 33.427258 -112.017390 5 1120ft 8kts
30-Nov-17 20:28 33.427748 -112.012167 90 1124ft 18kts
30-Nov-17 20:29 33.427743 -112.006038 89 1124ft 18kts
30-Nov-17 20:30 33.428788 -112.022972 268 1181ft 165kts
30-Nov-17 20:31 33.441953 -112.080202 320 2924ft 236kts
30-Nov-17 20:32 33.493897 -112.135933 317 6863ft 261kts
30-Nov-17 20:33 33.554451 -112.183290 342 10433ft 288kts
30-Nov-17 20:34 33.641229 -112.210379 343 12324ft 369kts
30-Nov-17 20:35 33.745971 -112.244156 341 15431ft 404kts
30-Nov-17 20:36 33.855050 -112.280166 341 18507ft 423kts
30-Nov-17 20:37 33.970342 -112.318409 340 21232ft 441kts
30-Nov-17 20:38 34.076790 -112.386506 316 23706ft 440kts
30-Nov-17 20:39 34.170114 -112.478908 315 25880ft 451kts
30-Nov-17 20:40 34.266909 -112.576687 314 27833ft 462kts
30-Nov-17 20:41 34.364389 -112.675516 313 29587ft 472kts
30-Nov-17 20:42 34.464934 -112.777204 313 31711ft 469kts
30-Nov-17 20:43 34.563301 -112.876946 312 33756ft 463kts
30-Nov-17 20:44 34.657805 -112.979521 311 35406ft 461kts
30-Nov-17 20:45 34.752109 -113.082675 311 36873ft 460kts
30-Nov-17 20:46 34.846136 -113.185864 311 38193ft 460kts
30-Nov-17 20:47 34.940007 -113.289302 310 39488ft 457kts
30-Nov-17 20:48 35.007220 -113.411034 286 40180ft 429kts
30-Nov-17 20:49 35.051668 -113.545052 285 40179ft 425kts
30-Nov-17 20:50 35.094343 -113.677233 284 40190ft 424kts
30-Nov-17 20:51 35.135845 -113.806829 285 40182ft 425kts
30-Nov-17 20:52 35.178586 -113.940962 284 40182ft 425kts
30-Nov-17 20:53 35.221497 -114.075012 285 40180ft 425kts
30-Nov-17 20:54 35.263990 -114.209826 285 40177ft 425kts
30-Nov-17 20:55 35.306070 -114.344371 284 40142ft 424kts
30-Nov-17 20:56 35.348071 -114.478960 284 40096ft 424kts
30-Nov-17 20:57 35.389862 -114.613200 284 40098ft 424kts
30-Nov-17 20:58 35.431054 -114.745430 284 40103ft 424kts
30-Nov-17 20:59 35.495844 -114.868223 303 40133ft 443kts
30-Nov-17 21:00 35.576493 -114.981569 303 40169ft 443kts
30-Nov-17 21:01 35.657386 -115.095673 306 40163ft 445kts
30-Nov-17 21:02 35.738332 -115.210935 308 40158ft 450kts
30-Nov-17 21:03 35.816544 -115.321344 308 40166ft 451kts
30-Nov-17 21:04 35.898270 -115.437534 308 40152ft 451kts
30-Nov-17 21:05 35.980083 -115.553962 308 40140ft 450kts
30-Nov-17 21:06 36.051083 -115.655798 307 40137ft 451kts
30-Nov-17 21:07 36.131422 -115.771363 307 40135ft 450kts
30-Nov-17 21:08 36.212690 -115.888521 308 40138ft 451kts
30-Nov-17 21:09 36.294300 -116.006093 308 40139ft 451kts
30-Nov-17 21:10 36.375344 -116.123768 307 40133ft 450kts
30-Nov-17 21:11 36.456159 -116.241667 308 40138ft 451kts
30-Nov-17 21:12 36.536884 -116.359712 308 40136ft 450kts
30-Nov-17 21:13 36.617733 -116.478296 308 40133ft 451kts
30-Nov-17 21:14 36.698290 -116.596983 308 40144ft 450kts
30-Nov-17 21:15 36.776781 -116.713174 307 40149ft 451kts
30-Nov-17 21:16 36.874202 -116.811007 322 40166ft 457kts
30-Nov-17 21:17 36.979334 -116.899205 323 40223ft 454kts
30-Nov-17 21:18 37.081932 -116.984542 323 40216ft 439kts
30-Nov-17 21:19 37.180986 -117.067588 322 40220ft 432kts
30-Nov-17 21:20 37.280124 -117.151364 322 40219ft 430kts
30-Nov-17 21:21 37.378755 -117.235028 322 40218ft 431kts
30-Nov-17 21:22 37.477764 -117.319305 322 40217ft 430kts
30-Nov-17 21:23 37.575797 -117.403062 322 40214ft 430kts
30-Nov-17 21:24 37.674458 -117.487535 322 40214ft 430kts
30-Nov-17 21:25 37.773039 -117.572252 322 40213ft 430kts
30-Nov-17 21:26 37.868820 -117.654869 321 40208ft 430kts
30-Nov-17 21:27 37.966824 -117.740186 322 40204ft 430kts
30-Nov-17 21:28 38.057202 -117.836298 314 40212ft 427kts
30-Nov-17 21:29 38.142073 -117.937609 314 40227ft 427kts
30-Nov-17 21:30 38.227772 -118.041137 313 40234ft 427kts
30-Nov-17 21:31 38.313478 -118.144431 314 40237ft 427kts
30-Nov-17 21:32 38.399107 -118.248242 314 40236ft 427kts
30-Nov-17 21:33 38.484716 -118.352652 313 40235ft 426kts
30-Nov-17 21:34 38.569707 -118.456690 313 40233ft 427kts
30-Nov-17 21:35 38.654659 -118.561319 313 40232ft 427kts
30-Nov-17 21:36 38.736067 -118.661439 313 40236ft 426kts
30-Nov-17 21:37 38.820695 -118.765864 313 40238ft 427kts
30-Nov-17 21:38 38.905147 -118.869703 313 40238ft 424kts
30-Nov-17 21:39 38.987789 -118.972147 311 40237ft 416kts
30-Nov-17 21:40 39.066661 -119.070451 310 40234ft 410kts
30-Nov-17 21:41 39.145145 -119.169306 310 40237ft 410kts
30-Nov-17 21:42 39.226017 -119.271069 310 40243ft 410kts
30-Nov-17 21:43 39.306867 -119.372944 310 40242ft 410kts
30-Nov-17 21:44 39.387858 -119.475306 310 40237ft 410kts
30-Nov-17 21:45 39.468511 -119.577601 310 40220ft 410kts
30-Nov-17 21:46 39.550900 -119.672541 322 40231ft 420kts
30-Nov-17 21:47 39.650588 -119.748480 322 40247ft 421kts
30-Nov-17 21:48 39.751474 -119.825171 322 40258ft 421kts
30-Nov-17 21:49 39.852220 -119.901897 322 40256ft 421kts
30-Nov-17 21:50 39.952542 -119.978541 322 40255ft 421kts
30-Nov-17 21:51 40.052758 -120.055366 322 40253ft 421kts
30-Nov-17 21:52 40.150999 -120.130932 322 40247ft 421kts
30-Nov-17 21:53 40.251114 -120.208204 322 40237ft 421kts
30-Nov-17 21:54 40.350759 -120.285385 322 40234ft 421kts
30-Nov-17 21:55 40.450583 -120.362960 322 40233ft 421kts
30-Nov-17 21:56 40.550243 -120.440692 322 40231ft 421kts
30-Nov-17 21:57 40.649950 -120.518738 322 40230ft 421kts
30-Nov-17 21:58 40.749320 -120.596794 322 40229ft 421kts
30-Nov-17 21:59 40.844634 -120.671923 322 40241ft 421kts
30-Nov-17 22:00 40.943657 -120.750238 322 40233ft 421kts
30-Nov-17 22:01 41.042813 -120.828926 321 40231ft 425kts
30-Nov-17 22:02 41.139243 -120.905738 321 40230ft 429kts
30-Nov-17 22:03 41.240352 -120.986564 321 40228ft 427kts
30-Nov-17 22:04 41.340349 -121.066775 320 40226ft 421kts
30-Nov-17 22:05 41.439076 -121.146265 320 40226ft 415kts
30-Nov-17 22:06 41.536403 -121.224922 320 40226ft 410kts
30-Nov-17 22:07 41.632506 -121.303284 320 40224ft 411kts
30-Nov-17 22:08 41.729083 -121.382197 320 40229ft 411kts
30-Nov-17 22:09 41.825688 -121.461155 320 40229ft 412kts
30-Nov-17 22:10 41.922046 -121.541096 320 40227ft 411kts
30-Nov-17 22:11 42.018669 -121.621109 320 40225ft 411kts
30-Nov-17 22:12 42.111633 -121.697953 320 40245ft 411kts
30-Nov-17 22:13 42.214628 -121.763929 330 40243ft 423kts
30-Nov-17 22:14 42.323700 -121.818431 329 40238ft 414kts
30-Nov-17 22:15 42.430429 -121.871885 329 40242ft 414kts
30-Nov-17 22:16 42.538053 -121.925926 330 40239ft 414kts
30-Nov-17 22:17 42.644321 -121.979444 330 40235ft 413kts
30-Nov-17 22:18 42.751143 -122.033454 330 40237ft 414kts
30-Nov-17 22:19 42.840472 -122.078778 330 40237ft 414kts
30-Nov-17 22:20 42.966209 -122.142865 330 40250ft 421kts
30-Nov-17 22:21 43.076334 -122.199168 331 40272ft 428kts
30-Nov-17 22:22 43.166696 -122.245474 331 40271ft 428kts
30-Nov-17 22:23 43.295870 -122.311993 331 40266ft 428kts
30-Nov-17 22:24 43.406782 -122.369359 331 40261ft 428kts
30-Nov-17 22:25 43.498570 -122.417002 331 40260ft 428kts
30-Nov-17 22:26 43.608197 -122.474082 331 38145ft 419kts
30-Nov-17 22:27 43.715288 -122.530091 331 35821ft 412kts
30-Nov-17 22:28 43.821645 -122.585987 331 33333ft 416kts
30-Nov-17 22:29 43.929266 -122.642707 332 31151ft 423kts
30-Nov-17 22:30 44.037367 -122.699878 331 29657ft 426kts
30-Nov-17 22:31 44.141003 -122.752323 339 27671ft 422kts
30-Nov-17 22:32 44.258957 -122.751069 356 25483ft 427kts
30-Nov-17 22:33 44.374492 -122.739756 356 23313ft 414kts
30-Nov-17 22:34 44.486387 -122.728721 357 21213ft 402kts
30-Nov-17 22:35 44.595239 -122.717923 357 19196ft 390kts
30-Nov-17 22:36 44.701205 -122.707312 358 17085ft 381kts
30-Nov-17 22:37 44.804301 -122.696935 358 15355ft 370kts
30-Nov-17 22:38 44.904726 -122.684410 359 13211ft 370kts
30-Nov-17 22:39 45.005071 -122.673811 0 11145ft 362kts
30-Nov-17 22:40 45.099653 -122.664073 0 10213ft 309kts
30-Nov-17 22:41 45.174122 -122.656543 359 9164ft 269kts
30-Nov-17 22:42 45.247085 -122.646885 349 7918ft 264kts
30-Nov-17 22:43 45.314242 -122.679868 336 6993ft 254kts
30-Nov-17 22:44 45.380064 -122.715691 337 7006ft 261kts
30-Nov-17 22:45 45.446192 -122.743384 344 6458ft 246kts
30-Nov-17 22:46 45.511253 -122.767897 344 4918ft 245kts
30-Nov-17 22:47 45.571981 -122.800774 310 3987ft 246kts
30-Nov-17 22:48 45.608136 -122.877258 304 3843ft 244kts
30-Nov-17 22:49 45.654889 -122.934454 8 3075ft 230kts
30-Nov-17 22:50 45.686266 -122.880282 85 3091ft 178kts
30-Nov-17 22:51 45.670391 -122.816496 116 3075ft 173kts
30-Nov-17 22:52 45.648713 -122.759513 118 2337ft 163kts
30-Nov-17 22:53 45.627705 -122.705190 118 1352ft 147kts
30-Nov-17 22:54 45.609279 -122.657733 118 595ft 129kts
30-Nov-17 22:55 45.592331 -122.614276 118 29ft 119kts
30-Nov-17 22:56 45.586350 -122.601167 258 25ft 18kts
30-Nov-17 22:57 45.585864 -122.606024 182 25ft 7kts
30-Nov-17 22:58 45.585739 -122.606031 181 25ft 0kts

Navigation Log

Ident Type
Flight plan parsing failed, navigation log unavailable